sensor_id;sensor_type;location;lat;lon;timestamp;P1;durP1;ratioP1;P2;durP2;ratioP2
65825;SDS011;52586;-43.152;172.732;2023-04-24T00:01:41;6.20;;;1.15;;
65825;SDS011;52586;-43.152;172.732;2023-04-24T00:04:11;2.42;;;1.00;;
65825;SDS011;52586;-43.152;172.732;2023-04-24T00:06:42;1.38;;;0.80;;
65825;SDS011;52586;-43.152;172.732;2023-04-24T00:09:15;2.70;;;0.80;;
65825;SDS011;52586;-43.152;172.732;2023-04-24T00:11:48;2.80;;;1.10;;
65825;SDS011;52586;-43.152;172.732;2023-04-24T00:14:18;2.15;;;1.00;;
65825;SDS011;52586;-43.152;172.732;2023-04-24T00:16:49;1.50;;;0.98;;
65825;SDS011;52586;-43.152;172.732;2023-04-24T00:19:20;2.28;;;1.02;;
65825;SDS011;52586;-43.152;172.732;2023-04-24T00:21:50;1.40;;;0.95;;
65825;SDS011;52586;-43.152;172.732;2023-04-24T00:24:21;2.22;;;1.10;;
65825;SDS011;52586;-43.152;172.732;2023-04-24T00:26:53;1.70;;;1.02;;
65825;SDS011;52586;-43.152;172.732;2023-04-24T00:29:24;2.38;;;1.10;;
65825;SDS011;52586;-43.152;172.732;2023-04-24T00:31:55;2.47;;;0.98;;
65825;SDS011;52586;-43.152;172.732;2023-04-24T00:34:26;2.55;;;1.02;;
65825;SDS011;52586;-43.152;172.732;2023-04-24T00:36:58;2.08;;;1.00;;
65825;SDS011;52586;-43.152;172.732;2023-04-24T00:39:29;2.33;;;1.27;;
65825;SDS011;52586;-43.152;172.732;2023-04-24T00:42:01;2.20;;;1.08;;
65825;SDS011;52586;-43.152;172.732;2023-04-24T00:44:32;1.60;;;0.90;;
65825;SDS011;52586;-43.152;172.732;2023-04-24T00:47:03;1.63;;;0.90;;
65825;SDS011;52586;-43.152;172.732;2023-04-24T00:49:34;2.42;;;0.88;;
65825;SDS011;52586;-43.152;172.732;2023-04-24T00:52:05;1.67;;;0.85;;
65825;SDS011;52586;-43.152;172.732;2023-04-24T00:54:35;1.95;;;1.02;;
65825;SDS011;52586;-43.152;172.732;2023-04-24T00:57:08;1.17;;;0.80;;
65825;SDS011;52586;-43.152;172.732;2023-04-24T00:59:39;1.30;;;0.80;;
65825;SDS011;52586;-43.152;172.732;2023-04-24T01:02:10;1.60;;;0.80;;
65825;SDS011;52586;-43.152;172.732;2023-04-24T01:04:41;1.80;;;0.70;;
65825;SDS011;52586;-43.152;172.732;2023-04-24T01:07:12;1.88;;;0.77;;
65825;SDS011;52586;-43.152;172.732;2023-04-24T01:09:43;1.67;;;0.90;;
65825;SDS011;52586;-43.152;172.732;2023-04-24T01:12:19;2.13;;;1.10;;
65825;SDS011;52586;-43.152;172.732;2023-04-24T01:14:50;3.05;;;1.00;;
65825;SDS011;52586;-43.152;172.732;2023-04-24T01:17:20;2.53;;;1.17;;
65825;SDS011;52586;-43.152;172.732;2023-04-24T01:19:51;1.65;;;0.80;;
65825;SDS011;52586;-43.152;172.732;2023-04-24T01:22:24;2.15;;;0.95;;
65825;SDS011;52586;-43.152;172.732;2023-04-24T01:24:55;1.15;;;0.70;;
65825;SDS011;52586;-43.152;172.732;2023-04-24T01:27:26;3.83;;;0.88;;
65825;SDS011;52586;-43.152;172.732;2023-04-24T01:29:58;1.88;;;0.98;;
65825;SDS011;52586;-43.152;172.732;2023-04-24T01:32:29;3.28;;;1.00;;
65825;SDS011;52586;-43.152;172.732;2023-04-24T01:35:00;1.45;;;0.77;;
65825;SDS011;52586;-43.152;172.732;2023-04-24T01:37:33;1.50;;;0.68;;
65825;SDS011;52586;-43.152;172.732;2023-04-24T01:40:05;1.95;;;0.85;;
65825;SDS011;52586;-43.152;172.732;2023-04-24T01:42:37;1.48;;;1.02;;
65825;SDS011;52586;-43.152;172.732;2023-04-24T01:45:10;2.22;;;0.90;;
65825;SDS011;52586;-43.152;172.732;2023-04-24T01:47:41;2.30;;;0.90;;
65825;SDS011;52586;-43.152;172.732;2023-04-24T01:50:12;2.03;;;0.60;;
65825;SDS011;52586;-43.152;172.732;2023-04-24T01:52:45;2.58;;;1.00;;
65825;SDS011;52586;-43.152;172.732;2023-04-24T01:55:15;1.92;;;0.95;;
65825;SDS011;52586;-43.152;172.732;2023-04-24T01:57:46;3.65;;;1.02;;
65825;SDS011;52586;-43.152;172.732;2023-04-24T02:00:17;3.67;;;1.00;;
65825;SDS011;52586;-43.152;172.732;2023-04-24T02:02:48;1.55;;;0.77;;
65825;SDS011;52586;-43.152;172.732;2023-04-24T02:05:19;1.98;;;1.05;;
65825;SDS011;52586;-43.152;172.732;2023-04-24T02:07:51;1.45;;;0.90;;
65825;SDS011;52586;-43.152;172.732;2023-04-24T02:10:22;1.48;;;0.95;;
65825;SDS011;52586;-43.152;172.732;2023-04-24T02:12:53;3.42;;;0.90;;
65825;SDS011;52586;-43.152;172.732;2023-04-24T02:15:26;1.48;;;0.77;;
65825;SDS011;52586;-43.152;172.732;2023-04-24T02:17:57;1.38;;;0.80;;
65825;SDS011;52586;-43.152;172.732;2023-04-24T02:20:27;2.00;;;0.77;;
65825;SDS011;52586;-43.152;172.732;2023-04-24T02:23:01;1.15;;;0.70;;
65825;SDS011;52586;-43.152;172.732;2023-04-24T02:25:33;2.30;;;0.80;;
65825;SDS011;52586;-43.152;172.732;2023-04-24T02:28:04;3.65;;;0.70;;
65825;SDS011;52586;-43.152;172.732;2023-04-24T02:30:34;1.15;;;0.70;;
65825;SDS011;52586;-43.152;172.732;2023-04-24T02:33:05;1.38;;;0.73;;
65825;SDS011;52586;-43.152;172.732;2023-04-24T02:35:36;1.52;;;0.80;;
65825;SDS011;52586;-43.152;172.732;2023-04-24T02:38:08;2.78;;;0.73;;
65825;SDS011;52586;-43.152;172.732;2023-04-24T02:40:39;2.00;;;0.93;;
65825;SDS011;52586;-43.152;172.732;2023-04-24T02:43:09;1.48;;;0.80;;
65825;SDS011;52586;-43.152;172.732;2023-04-24T02:45:40;2.70;;;0.85;;
65825;SDS011;52586;-43.152;172.732;2023-04-24T02:48:10;1.45;;;0.60;;
65825;SDS011;52586;-43.152;172.732;2023-04-24T02:50:41;2.85;;;1.08;;
65825;SDS011;52586;-43.152;172.732;2023-04-24T02:53:14;2.20;;;0.90;;
65825;SDS011;52586;-43.152;172.732;2023-04-24T02:55:44;1.17;;;0.75;;
65825;SDS011;52586;-43.152;172.732;2023-04-24T02:58:15;1.73;;;0.95;;
65825;SDS011;52586;-43.152;172.732;2023-04-24T03:00:46;2.15;;;0.90;;
65825;SDS011;52586;-43.152;172.732;2023-04-24T03:03:17;1.40;;;0.77;;
65825;SDS011;52586;-43.152;172.732;2023-04-24T03:05:48;1.88;;;0.55;;
65825;SDS011;52586;-43.152;172.732;2023-04-24T03:08:20;0.82;;;0.60;;
65825;SDS011;52586;-43.152;172.732;2023-04-24T03:10:51;1.88;;;0.55;;
65825;SDS011;52586;-43.152;172.732;2023-04-24T03:13:22;1.48;;;0.80;;
65825;SDS011;52586;-43.152;172.732;2023-04-24T03:15:53;1.75;;;0.90;;
65825;SDS011;52586;-43.152;172.732;2023-04-24T03:18:23;1.63;;;0.90;;
65825;SDS011;52586;-43.152;172.732;2023-04-24T03:20:54;2.63;;;0.90;;
65825;SDS011;52586;-43.152;172.732;2023-04-24T03:23:26;1.15;;;0.80;;
65825;SDS011;52586;-43.152;172.732;2023-04-24T03:25:57;1.95;;;0.80;;
65825;SDS011;52586;-43.152;172.732;2023-04-24T03:28:28;1.80;;;0.63;;
65825;SDS011;52586;-43.152;172.732;2023-04-24T03:30:59;1.88;;;0.80;;
65825;SDS011;52586;-43.152;172.732;2023-04-24T03:33:29;1.38;;;0.82;;
65825;SDS011;52586;-43.152;172.732;2023-04-24T03:36:04;1.52;;;0.70;;
65825;SDS011;52586;-43.152;172.732;2023-04-24T03:38:37;2.20;;;0.77;;
65825;SDS011;52586;-43.152;172.732;2023-04-24T03:41:07;1.45;;;0.65;;
65825;SDS011;52586;-43.152;172.732;2023-04-24T03:43:38;1.55;;;0.70;;
65825;SDS011;52586;-43.152;172.732;2023-04-24T03:46:09;1.10;;;0.75;;
65825;SDS011;52586;-43.152;172.732;2023-04-24T03:48:39;1.88;;;0.88;;
65825;SDS011;52586;-43.152;172.732;2023-04-24T03:51:10;1.20;;;0.82;;
65825;SDS011;52586;-43.152;172.732;2023-04-24T03:53:43;2.08;;;0.80;;
65825;SDS011;52586;-43.152;172.732;2023-04-24T03:56:13;2.97;;;0.90;;
65825;SDS011;52586;-43.152;172.732;2023-04-24T03:58:44;1.63;;;0.70;;
65825;SDS011;52586;-43.152;172.732;2023-04-24T04:01:15;1.50;;;0.88;;
65825;SDS011;52586;-43.152;172.732;2023-04-24T04:03:46;1.15;;;0.80;;
65825;SDS011;52586;-43.152;172.732;2023-04-24T04:06:17;1.20;;;0.80;;
65825;SDS011;52586;-43.152;172.732;2023-04-24T04:08:50;2.65;;;1.00;;
65825;SDS011;52586;-43.152;172.732;2023-04-24T04:11:20;1.23;;;0.68;;
65825;SDS011;52586;-43.152;172.732;2023-04-24T04:13:51;2.13;;;1.10;;
65825;SDS011;52586;-43.152;172.732;2023-04-24T04:16:21;1.08;;;0.60;;
65825;SDS011;52586;-43.152;172.732;2023-04-24T04:18:52;0.77;;;0.65;;
65825;SDS011;52586;-43.152;172.732;2023-04-24T04:21:23;1.65;;;0.77;;
65825;SDS011;52586;-43.152;172.732;2023-04-24T04:23:56;1.85;;;0.80;;
65825;SDS011;52586;-43.152;172.732;2023-04-24T04:26:27;1.80;;;0.75;;
65825;SDS011;52586;-43.152;172.732;2023-04-24T04:28:58;1.25;;;0.80;;
65825;SDS011;52586;-43.152;172.732;2023-04-24T04:31:29;1.85;;;0.73;;
65825;SDS011;52586;-43.152;172.732;2023-04-24T04:34:00;1.65;;;0.93;;
65825;SDS011;52586;-43.152;172.732;2023-04-24T04:36:30;1.90;;;0.70;;
65825;SDS011;52586;-43.152;172.732;2023-04-24T04:39:04;2.30;;;0.98;;
65825;SDS011;52586;-43.152;172.732;2023-04-24T04:41:35;2.03;;;0.80;;
65825;SDS011;52586;-43.152;172.732;2023-04-24T04:44:06;1.90;;;1.00;;
65825;SDS011;52586;-43.152;172.732;2023-04-24T04:46:37;2.38;;;0.88;;
65825;SDS011;52586;-43.152;172.732;2023-04-24T04:49:07;1.85;;;1.00;;
65825;SDS011;52586;-43.152;172.732;2023-04-24T04:51:38;2.03;;;0.98;;
65825;SDS011;52586;-43.152;172.732;2023-04-24T04:54:10;2.25;;;0.68;;
65825;SDS011;52586;-43.152;172.732;2023-04-24T04:56:41;1.85;;;0.60;;
65825;SDS011;52586;-43.152;172.732;2023-04-24T04:59:12;2.00;;;0.80;;
65825;SDS011;52586;-43.152;172.732;2023-04-24T05:01:43;1.77;;;1.05;;
65825;SDS011;52586;-43.152;172.732;2023-04-24T05:04:13;1.25;;;0.93;;
65825;SDS011;52586;-43.152;172.732;2023-04-24T05:06:44;1.65;;;0.75;;
65825;SDS011;52586;-43.152;172.732;2023-04-24T05:09:19;1.85;;;0.95;;
65825;SDS011;52586;-43.152;172.732;2023-04-24T05:11:49;1.60;;;0.90;;
65825;SDS011;52586;-43.152;172.732;2023-04-24T05:14:20;1.30;;;0.80;;
65825;SDS011;52586;-43.152;172.732;2023-04-24T05:16:51;2.38;;;1.00;;
65825;SDS011;52586;-43.152;172.732;2023-04-24T05:19:21;1.55;;;0.80;;
65825;SDS011;52586;-43.152;172.732;2023-04-24T05:21:52;2.10;;;0.73;;
65825;SDS011;52586;-43.152;172.732;2023-04-24T05:24:24;1.77;;;0.82;;
65825;SDS011;52586;-43.152;172.732;2023-04-24T05:26:55;1.38;;;0.70;;
65825;SDS011;52586;-43.152;172.732;2023-04-24T05:29:26;2.67;;;0.98;;
65825;SDS011;52586;-43.152;172.732;2023-04-24T05:31:57;1.65;;;0.90;;
65825;SDS011;52586;-43.152;172.732;2023-04-24T05:34:28;1.23;;;0.80;;
65825;SDS011;52586;-43.152;172.732;2023-04-24T05:36:59;1.42;;;0.73;;
65825;SDS011;52586;-43.152;172.732;2023-04-24T05:39:31;1.65;;;1.00;;
65825;SDS011;52586;-43.152;172.732;2023-04-24T05:42:02;2.28;;;0.80;;
65825;SDS011;52586;-43.152;172.732;2023-04-24T05:44:33;1.27;;;0.80;;
65825;SDS011;52586;-43.152;172.732;2023-04-24T05:47:04;1.52;;;0.73;;
65825;SDS011;52586;-43.152;172.732;2023-04-24T05:49:34;1.05;;;0.80;;
65825;SDS011;52586;-43.152;172.732;2023-04-24T05:52:05;2.40;;;1.08;;
65825;SDS011;52586;-43.152;172.732;2023-04-24T05:54:37;2.92;;;1.02;;
65825;SDS011;52586;-43.152;172.732;2023-04-24T05:57:08;1.95;;;1.00;;
65825;SDS011;52586;-43.152;172.732;2023-04-24T05:59:38;1.20;;;0.77;;
65825;SDS011;52586;-43.152;172.732;2023-04-24T06:02:09;2.33;;;1.10;;
65825;SDS011;52586;-43.152;172.732;2023-04-24T06:04:40;1.88;;;0.80;;
65825;SDS011;52586;-43.152;172.732;2023-04-24T06:07:10;3.13;;;1.23;;
65825;SDS011;52586;-43.152;172.732;2023-04-24T06:09:43;2.42;;;0.80;;
65825;SDS011;52586;-43.152;172.732;2023-04-24T06:12:14;1.10;;;0.80;;
65825;SDS011;52586;-43.152;172.732;2023-04-24T06:14:44;1.60;;;0.98;;
65825;SDS011;52586;-43.152;172.732;2023-04-24T06:17:15;1.17;;;0.93;;
65825;SDS011;52586;-43.152;172.732;2023-04-24T06:19:46;2.10;;;1.00;;
65825;SDS011;52586;-43.152;172.732;2023-04-24T06:22:16;2.38;;;1.30;;
65825;SDS011;52586;-43.152;172.732;2023-04-24T06:24:49;2.55;;;0.93;;
65825;SDS011;52586;-43.152;172.732;2023-04-24T06:27:19;2.63;;;1.15;;
65825;SDS011;52586;-43.152;172.732;2023-04-24T06:29:50;2.05;;;1.13;;
65825;SDS011;52586;-43.152;172.732;2023-04-24T06:32:22;1.83;;;1.10;;
65825;SDS011;52586;-43.152;172.732;2023-04-24T06:34:53;1.35;;;1.00;;
65825;SDS011;52586;-43.152;172.732;2023-04-24T06:37:24;1.75;;;0.90;;
65825;SDS011;52586;-43.152;172.732;2023-04-24T06:39:56;2.17;;;1.30;;
65825;SDS011;52586;-43.152;172.732;2023-04-24T06:42:27;2.28;;;1.20;;
65825;SDS011;52586;-43.152;172.732;2023-04-24T06:44:57;1.60;;;1.08;;
65825;SDS011;52586;-43.152;172.732;2023-04-24T06:47:28;1.83;;;1.13;;
65825;SDS011;52586;-43.152;172.732;2023-04-24T06:49:59;1.30;;;0.82;;
65825;SDS011;52586;-43.152;172.732;2023-04-24T06:52:29;2.17;;;1.10;;
65825;SDS011;52586;-43.152;172.732;2023-04-24T06:55:03;1.98;;;1.10;;
65825;SDS011;52586;-43.152;172.732;2023-04-24T06:57:34;1.02;;;0.85;;
65825;SDS011;52586;-43.152;172.732;2023-04-24T07:00:05;1.85;;;1.13;;
65825;SDS011;52586;-43.152;172.732;2023-04-24T07:02:36;3.17;;;1.50;;
65825;SDS011;52586;-43.152;172.732;2023-04-24T07:05:07;3.10;;;1.67;;
65825;SDS011;52586;-43.152;172.732;2023-04-24T07:07:38;2.08;;;1.48;;
65825;SDS011;52586;-43.152;172.732;2023-04-24T07:10:11;2.92;;;1.67;;
65825;SDS011;52586;-43.152;172.732;2023-04-24T07:12:42;3.30;;;1.70;;
65825;SDS011;52586;-43.152;172.732;2023-04-24T07:15:12;2.30;;;1.55;;
65825;SDS011;52586;-43.152;172.732;2023-04-24T07:17:43;1.70;;;1.42;;
65825;SDS011;52586;-43.152;172.732;2023-04-24T07:20:14;2.05;;;1.50;;
65825;SDS011;52586;-43.152;172.732;2023-04-24T07:22:44;2.97;;;1.67;;
65825;SDS011;52586;-43.152;172.732;2023-04-24T07:25:17;2.47;;;1.50;;
65825;SDS011;52586;-43.152;172.732;2023-04-24T07:27:48;2.25;;;1.55;;
65825;SDS011;52586;-43.152;172.732;2023-04-24T07:30:19;3.17;;;1.70;;
65825;SDS011;52586;-43.152;172.732;2023-04-24T07:32:49;5.00;;;1.63;;
65825;SDS011;52586;-43.152;172.732;2023-04-24T07:35:20;2.15;;;1.65;;
65825;SDS011;52586;-43.152;172.732;2023-04-24T07:37:51;1.90;;;1.40;;
65825;SDS011;52586;-43.152;172.732;2023-04-24T07:40:24;4.03;;;1.88;;
65825;SDS011;52586;-43.152;172.732;2023-04-24T07:42:55;2.75;;;1.50;;
65825;SDS011;52586;-43.152;172.732;2023-04-24T07:45:26;3.42;;;1.88;;
65825;SDS011;52586;-43.152;172.732;2023-04-24T07:47:57;2.80;;;1.60;;
65825;SDS011;52586;-43.152;172.732;2023-04-24T07:50:28;4.32;;;1.77;;
65825;SDS011;52586;-43.152;172.732;2023-04-24T07:52:58;2.15;;;1.58;;
65825;SDS011;52586;-43.152;172.732;2023-04-24T07:55:31;2.08;;;1.50;;
65825;SDS011;52586;-43.152;172.732;2023-04-24T07:58:01;2.25;;;1.60;;
65825;SDS011;52586;-43.152;172.732;2023-04-24T08:00:32;2.28;;;1.80;;
65825;SDS011;52586;-43.152;172.732;2023-04-24T08:03:03;1.60;;;1.35;;
65825;SDS011;52586;-43.152;172.732;2023-04-24T08:05:33;3.15;;;1.90;;
65825;SDS011;52586;-43.152;172.732;2023-04-24T08:08:04;2.45;;;1.63;;
65825;SDS011;52586;-43.152;172.732;2023-04-24T08:10:37;2.67;;;1.67;;
65825;SDS011;52586;-43.152;172.732;2023-04-24T08:13:07;3.40;;;1.95;;
65825;SDS011;52586;-43.152;172.732;2023-04-24T08:15:38;2.85;;;1.88;;
65825;SDS011;52586;-43.152;172.732;2023-04-24T08:18:09;3.80;;;2.15;;
65825;SDS011;52586;-43.152;172.732;2023-04-24T08:20:41;3.45;;;1.80;;
65825;SDS011;52586;-43.152;172.732;2023-04-24T08:23:12;3.05;;;1.88;;
65825;SDS011;52586;-43.152;172.732;2023-04-24T08:25:44;2.38;;;1.90;;
65825;SDS011;52586;-43.152;172.732;2023-04-24T08:28:15;2.22;;;1.67;;
65825;SDS011;52586;-43.152;172.732;2023-04-24T08:30:46;2.90;;;1.73;;
65825;SDS011;52586;-43.152;172.732;2023-04-24T08:33:20;2.53;;;1.70;;
65825;SDS011;52586;-43.152;172.732;2023-04-24T08:35:51;2.40;;;1.80;;
65825;SDS011;52586;-43.152;172.732;2023-04-24T08:38:22;2.95;;;1.88;;
65825;SDS011;52586;-43.152;172.732;2023-04-24T08:40:55;3.58;;;2.38;;
65825;SDS011;52586;-43.152;172.732;2023-04-24T08:43:27;4.40;;;1.98;;
65825;SDS011;52586;-43.152;172.732;2023-04-24T08:45:58;3.08;;;1.88;;
65825;SDS011;52586;-43.152;172.732;2023-04-24T08:48:29;2.78;;;2.25;;
65825;SDS011;52586;-43.152;172.732;2023-04-24T08:51:00;3.42;;;1.88;;
65825;SDS011;52586;-43.152;172.732;2023-04-24T08:53:34;3.03;;;1.92;;
65825;SDS011;52586;-43.152;172.732;2023-04-24T08:56:07;4.15;;;2.30;;
65825;SDS011;52586;-43.152;172.732;2023-04-24T08:58:38;3.35;;;1.80;;
65825;SDS011;52586;-43.152;172.732;2023-04-24T09:01:09;2.72;;;1.98;;
65825;SDS011;52586;-43.152;172.732;2023-04-24T09:03:40;2.88;;;1.90;;
65825;SDS011;52586;-43.152;172.732;2023-04-24T09:06:11;2.72;;;1.80;;
65825;SDS011;52586;-43.152;172.732;2023-04-24T09:08:42;3.83;;;2.00;;
65825;SDS011;52586;-43.152;172.732;2023-04-24T09:11:16;3.38;;;2.38;;
65825;SDS011;52586;-43.152;172.732;2023-04-24T09:13:47;2.28;;;1.67;;
65825;SDS011;52586;-43.152;172.732;2023-04-24T09:16:18;3.15;;;2.00;;
65825;SDS011;52586;-43.152;172.732;2023-04-24T09:18:50;4.90;;;2.20;;
65825;SDS011;52586;-43.152;172.732;2023-04-24T09:21:21;3.00;;;1.85;;
65825;SDS011;52586;-43.152;172.732;2023-04-24T09:23:58;2.70;;;1.70;;
65825;SDS011;52586;-43.152;172.732;2023-04-24T09:26:31;2.80;;;1.95;;
65825;SDS011;52586;-43.152;172.732;2023-04-24T09:29:04;3.58;;;1.98;;
65825;SDS011;52586;-43.152;172.732;2023-04-24T09:31:35;2.95;;;1.75;;
65825;SDS011;52586;-43.152;172.732;2023-04-24T09:34:05;5.22;;;2.38;;
65825;SDS011;52586;-43.152;172.732;2023-04-24T09:36:36;3.30;;;2.00;;
65825;SDS011;52586;-43.152;172.732;2023-04-24T09:39:08;3.28;;;2.00;;
65825;SDS011;52586;-43.152;172.732;2023-04-24T09:41:45;3.92;;;1.98;;
65825;SDS011;52586;-43.152;172.732;2023-04-24T09:44:17;2.33;;;1.90;;
65825;SDS011;52586;-43.152;172.732;2023-04-24T09:46:49;3.15;;;1.80;;
65825;SDS011;52586;-43.152;172.732;2023-04-24T09:49:21;3.58;;;1.92;;
65825;SDS011;52586;-43.152;172.732;2023-04-24T09:51:52;4.18;;;2.10;;
65825;SDS011;52586;-43.152;172.732;2023-04-24T09:54:33;3.05;;;1.92;;
65825;SDS011;52586;-43.152;172.732;2023-04-24T09:57:06;2.90;;;2.00;;
65825;SDS011;52586;-43.152;172.732;2023-04-24T09:59:42;2.88;;;2.00;;
65825;SDS011;52586;-43.152;172.732;2023-04-24T10:02:17;2.67;;;1.83;;
65825;SDS011;52586;-43.152;172.732;2023-04-24T10:04:54;2.65;;;1.70;;
65825;SDS011;52586;-43.152;172.732;2023-04-24T10:07:26;2.97;;;1.80;;
65825;SDS011;52586;-43.152;172.732;2023-04-24T10:09:56;2.85;;;1.80;;
65825;SDS011;52586;-43.152;172.732;2023-04-24T10:12:30;3.15;;;1.88;;
65825;SDS011;52586;-43.152;172.732;2023-04-24T10:15:00;3.45;;;2.10;;
65825;SDS011;52586;-43.152;172.732;2023-04-24T10:17:32;3.22;;;1.90;;
65825;SDS011;52586;-43.152;172.732;2023-04-24T10:20:03;3.00;;;1.90;;
65825;SDS011;52586;-43.152;172.732;2023-04-24T10:22:35;3.17;;;2.22;;
65825;SDS011;52586;-43.152;172.732;2023-04-24T10:25:07;3.08;;;2.13;;
65825;SDS011;52586;-43.152;172.732;2023-04-24T10:27:40;4.32;;;2.33;;
65825;SDS011;52586;-43.152;172.732;2023-04-24T10:30:12;6.20;;;2.15;;
65825;SDS011;52586;-43.152;172.732;2023-04-24T10:32:43;3.15;;;2.13;;
65825;SDS011;52586;-43.152;172.732;2023-04-24T10:35:14;3.10;;;1.80;;
65825;SDS011;52586;-43.152;172.732;2023-04-24T10:37:49;2.63;;;1.92;;
65825;SDS011;52586;-43.152;172.732;2023-04-24T10:40:25;3.47;;;2.05;;
65825;SDS011;52586;-43.152;172.732;2023-04-24T10:43:01;2.78;;;2.10;;
65825;SDS011;52586;-43.152;172.732;2023-04-24T10:45:34;3.95;;;2.20;;
65825;SDS011;52586;-43.152;172.732;2023-04-24T10:48:05;3.67;;;1.90;;
65825;SDS011;52586;-43.152;172.732;2023-04-24T10:50:43;3.25;;;1.90;;
65825;SDS011;52586;-43.152;172.732;2023-04-24T10:53:16;3.15;;;2.08;;
65825;SDS011;52586;-43.152;172.732;2023-04-24T10:55:49;3.08;;;1.90;;
65825;SDS011;52586;-43.152;172.732;2023-04-24T10:58:23;4.22;;;2.05;;
65825;SDS011;52586;-43.152;172.732;2023-04-24T11:01:04;3.97;;;2.22;;
65825;SDS011;52586;-43.152;172.732;2023-04-24T11:03:35;5.72;;;2.30;;
65825;SDS011;52586;-43.152;172.732;2023-04-24T11:06:08;2.55;;;1.85;;
65825;SDS011;52586;-43.152;172.732;2023-04-24T11:08:39;3.35;;;2.00;;
65825;SDS011;52586;-43.152;172.732;2023-04-24T11:11:11;3.38;;;2.22;;
65825;SDS011;52586;-43.152;172.732;2023-04-24T11:14:04;3.78;;;2.15;;
65825;SDS011;52586;-43.152;172.732;2023-04-24T11:16:51;4.75;;;2.38;;
65825;SDS011;52586;-43.152;172.732;2023-04-24T11:19:23;6.05;;;2.67;;
65825;SDS011;52586;-43.152;172.732;2023-04-24T11:21:55;4.18;;;2.50;;
65825;SDS011;52586;-43.152;172.732;2023-04-24T11:24:29;5.40;;;2.22;;
65825;SDS011;52586;-43.152;172.732;2023-04-24T11:27:05;3.92;;;2.17;;
65825;SDS011;52586;-43.152;172.732;2023-04-24T11:29:42;4.53;;;2.35;;
65825;SDS011;52586;-43.152;172.732;2023-04-24T11:32:17;4.35;;;2.13;;
65825;SDS011;52586;-43.152;172.732;2023-04-24T11:34:55;3.40;;;2.00;;
65825;SDS011;52586;-43.152;172.732;2023-04-24T11:37:27;4.10;;;2.13;;
65825;SDS011;52586;-43.152;172.732;2023-04-24T11:39:58;4.18;;;2.00;;
65825;SDS011;52586;-43.152;172.732;2023-04-24T11:42:33;6.00;;;2.20;;
65825;SDS011;52586;-43.152;172.732;2023-04-24T11:45:09;3.53;;;2.30;;
65825;SDS011;52586;-43.152;172.732;2023-04-24T11:47:41;4.75;;;2.60;;
65825;SDS011;52586;-43.152;172.732;2023-04-24T11:50:12;4.90;;;2.30;;
65825;SDS011;52586;-43.152;172.732;2023-04-24T11:52:44;3.17;;;2.10;;
65825;SDS011;52586;-43.152;172.732;2023-04-24T11:55:25;5.15;;;2.53;;
65825;SDS011;52586;-43.152;172.732;2023-04-24T11:57:57;5.07;;;2.70;;
65825;SDS011;52586;-43.152;172.732;2023-04-24T12:00:30;5.20;;;2.58;;
65825;SDS011;52586;-43.152;172.732;2023-04-24T12:03:05;5.88;;;2.80;;
65825;SDS011;52586;-43.152;172.732;2023-04-24T12:05:36;5.85;;;2.88;;
65825;SDS011;52586;-43.152;172.732;2023-04-24T12:08:07;5.18;;;2.60;;
65825;SDS011;52586;-43.152;172.732;2023-04-24T12:10:38;4.88;;;2.63;;
65825;SDS011;52586;-43.152;172.732;2023-04-24T12:13:09;4.45;;;2.78;;
65825;SDS011;52586;-43.152;172.732;2023-04-24T12:15:42;4.38;;;2.85;;
65825;SDS011;52586;-43.152;172.732;2023-04-24T12:18:12;6.00;;;2.95;;
65825;SDS011;52586;-43.152;172.732;2023-04-24T12:20:44;6.55;;;3.00;;
65825;SDS011;52586;-43.152;172.732;2023-04-24T12:23:14;5.72;;;2.70;;
65825;SDS011;52586;-43.152;172.732;2023-04-24T12:25:45;5.82;;;2.83;;
65825;SDS011;52586;-43.152;172.732;2023-04-24T12:28:16;6.15;;;2.70;;
65825;SDS011;52586;-43.152;172.732;2023-04-24T12:30:48;6.25;;;2.97;;
65825;SDS011;52586;-43.152;172.732;2023-04-24T12:33:20;6.82;;;3.08;;
65825;SDS011;52586;-43.152;172.732;2023-04-24T12:35:51;7.72;;;3.33;;
65825;SDS011;52586;-43.152;172.732;2023-04-24T12:38:23;5.30;;;2.90;;
65825;SDS011;52586;-43.152;172.732;2023-04-24T12:41:01;8.40;;;3.05;;
65825;SDS011;52586;-43.152;172.732;2023-04-24T12:43:33;6.50;;;3.33;;
65825;SDS011;52586;-43.152;172.732;2023-04-24T12:46:06;8.40;;;3.63;;
65825;SDS011;52586;-43.152;172.732;2023-04-24T12:48:37;5.22;;;3.00;;
65825;SDS011;52586;-43.152;172.732;2023-04-24T12:51:07;5.38;;;3.05;;
65825;SDS011;52586;-43.152;172.732;2023-04-24T12:53:38;5.43;;;3.05;;
65825;SDS011;52586;-43.152;172.732;2023-04-24T12:56:09;7.95;;;3.30;;
65825;SDS011;52586;-43.152;172.732;2023-04-24T12:58:40;6.07;;;2.88;;
65825;SDS011;52586;-43.152;172.732;2023-04-24T13:01:12;6.65;;;2.88;;
65825;SDS011;52586;-43.152;172.732;2023-04-24T13:03:43;7.72;;;3.33;;
65825;SDS011;52586;-43.152;172.732;2023-04-24T13:06:14;7.45;;;2.78;;
65825;SDS011;52586;-43.152;172.732;2023-04-24T13:08:44;5.70;;;3.28;;
65825;SDS011;52586;-43.152;172.732;2023-04-24T13:11:15;5.65;;;2.90;;
65825;SDS011;52586;-43.152;172.732;2023-04-24T13:13:46;6.78;;;2.70;;
65825;SDS011;52586;-43.152;172.732;2023-04-24T13:16:18;4.32;;;2.45;;
65825;SDS011;52586;-43.152;172.732;2023-04-24T13:18:49;6.65;;;3.13;;
65825;SDS011;52586;-43.152;172.732;2023-04-24T13:21:20;5.20;;;2.65;;
65825;SDS011;52586;-43.152;172.732;2023-04-24T13:23:50;4.88;;;2.90;;
65825;SDS011;52586;-43.152;172.732;2023-04-24T13:26:21;5.57;;;2.90;;
65825;SDS011;52586;-43.152;172.732;2023-04-24T13:28:52;3.92;;;2.65;;
65825;SDS011;52586;-43.152;172.732;2023-04-24T13:31:24;6.03;;;3.00;;
65825;SDS011;52586;-43.152;172.732;2023-04-24T13:33:55;5.90;;;2.65;;
65825;SDS011;52586;-43.152;172.732;2023-04-24T13:36:25;5.93;;;2.80;;
65825;SDS011;52586;-43.152;172.732;2023-04-24T13:38:56;5.38;;;3.22;;
65825;SDS011;52586;-43.152;172.732;2023-04-24T13:41:26;4.60;;;2.58;;
65825;SDS011;52586;-43.152;172.732;2023-04-24T13:43:57;5.13;;;2.63;;
65825;SDS011;52586;-43.152;172.732;2023-04-24T13:46:30;5.20;;;2.70;;
65825;SDS011;52586;-43.152;172.732;2023-04-24T13:49:02;7.18;;;2.95;;
65825;SDS011;52586;-43.152;172.732;2023-04-24T13:51:32;5.65;;;2.80;;
65825;SDS011;52586;-43.152;172.732;2023-04-24T13:54:03;5.57;;;3.08;;
65825;SDS011;52586;-43.152;172.732;2023-04-24T13:56:34;4.90;;;2.75;;
65825;SDS011;52586;-43.152;172.732;2023-04-24T13:59:05;5.63;;;2.85;;
65825;SDS011;52586;-43.152;172.732;2023-04-24T14:01:40;6.15;;;2.88;;
65825;SDS011;52586;-43.152;172.732;2023-04-24T14:04:11;6.35;;;2.85;;
65825;SDS011;52586;-43.152;172.732;2023-04-24T14:06:41;6.10;;;2.75;;
65825;SDS011;52586;-43.152;172.732;2023-04-24T14:09:12;6.07;;;2.83;;
65825;SDS011;52586;-43.152;172.732;2023-04-24T14:11:43;3.72;;;2.60;;
65825;SDS011;52586;-43.152;172.732;2023-04-24T14:14:14;5.43;;;2.58;;
65825;SDS011;52586;-43.152;172.732;2023-04-24T14:16:46;6.80;;;2.80;;
65825;SDS011;52586;-43.152;172.732;2023-04-24T14:19:17;4.80;;;2.65;;
65825;SDS011;52586;-43.152;172.732;2023-04-24T14:21:47;4.10;;;2.65;;
65825;SDS011;52586;-43.152;172.732;2023-04-24T14:24:18;3.83;;;2.47;;
65825;SDS011;52586;-43.152;172.732;2023-04-24T14:26:49;4.20;;;2.80;;
65825;SDS011;52586;-43.152;172.732;2023-04-24T14:29:19;4.80;;;2.60;;
65825;SDS011;52586;-43.152;172.732;2023-04-24T14:31:53;5.65;;;2.60;;
65825;SDS011;52586;-43.152;172.732;2023-04-24T14:34:24;6.38;;;2.65;;